Time;durP1;ratioP1;P1;durP2;ratioP2;P2;SDS_P1;SDS_P2;PMS_P1;PMS_P2;Temp;Humidity;BMP_temperature;BMP_pressure;BME280_temperature;BME280_humidity;BME280_pressure;Samples;Min_cycle;Max_cycle;Signal;HPM_P1;HPM_P2
2020/12/18 00:00:00;;;;;;;0.88;0.88;;;6.30;95.20;;;10.36;77.17;102176.66;4993309;28;96795;-74
2020/12/18 00:02:34;;;;;;;0.40;0.40;;;6.30;95.20;;;10.42;76.69;102189.81;4999103;28;96797;-73
2020/12/18 00:05:04;;;;;;;12.85;0.82;;;6.30;95.20;;;10.42;76.84;102178.28;4992827;28;98046;-75
2020/12/18 00:07:31;;;;;;;1.40;1.30;;;6.30;95.20;;;10.44;76.76;102181.50;4997552;28;96814;-74
2020/12/18 00:10:04;;;;;;;0.68;0.68;;;6.30;95.20;;;10.35;76.89;102178.53;4993221;28;96714;-74
2020/12/18 00:12:32;;;;;;;0.68;0.68;;;6.20;95.20;;;10.36;76.77;102180.16;4997149;28;96768;-74
2020/12/18 00:15:00;;;;;;;11.35;0.90;;;6.20;95.20;;;10.22;76.94;102175.56;4995371;28;96751;-74
2020/12/18 00:17:32;;;;;;;10.63;0.88;;;6.20;95.20;;;10.25;77.47;102177.72;4997082;28;97432;-73
2020/12/18 00:20:03;;;;;;;1.27;1.13;;;6.20;95.20;;;10.09;77.93;102173.38;4998144;28;96842;-74
2020/12/18 00:22:32;;;;;;;0.28;0.28;;;6.20;95.20;;;10.20;77.47;102175.00;4999305;28;96957;-74
2020/12/18 00:25:00;;;;;;;1.73;1.27;;;6.20;95.20;;;10.09;77.58;102179.53;4996534;28;97240;-74
2020/12/18 00:27:31;;;;;;;0.90;0.90;;;6.20;95.50;;;10.11;77.43;102182.75;4999521;28;98064;-74
2020/12/18 00:29:58;;;;;;;4.95;1.70;;;6.10;95.20;;;10.26;77.33;102180.13;4999400;28;96823;-74
2020/12/18 00:32:26;;;;;;;5.95;2.03;;;6.10;95.20;;;10.06;77.58;102173.91;4993223;27;96653;-73
2020/12/18 00:34:54;;;;;;;1.85;0.88;;;6.10;95.20;;;10.16;77.34;102168.56;4997786;28;97855;-73
2020/12/18 00:37:22;;;;;;;24.88;1.83;;;6.10;95.20;;;10.20;76.87;102172.31;4998066;28;97424;-73
2020/12/18 00:39:49;;;;;;;0.50;0.50;;;6.10;95.20;;;10.19;76.97;102168.84;4982163;28;96684;-73
2020/12/18 00:42:17;;;;;;;2.17;1.30;;;6.10;95.20;;;10.17;77.25;102170.19;5001469;27;97224;-74
2020/12/18 00:44:45;;;;;;;2.33;1.33;;;6.10;95.20;;;10.19;76.83;102170.72;4991510;28;96824;-73
2020/12/18 00:47:13;;;;;;;1.25;1.08;;;6.00;95.20;;;10.16;76.87;102168.56;5000408;28;97062;-74
2020/12/18 00:49:41;;;;;;;0.98;0.90;;;6.10;95.20;;;10.11;77.20;102164.03;4991160;28;96853;-74
2020/12/18 00:52:10;;;;;;;1.58;0.93;;;6.00;95.20;;;10.19;77.24;102170.72;4981660;28;96793;-73
2020/12/18 00:54:38;;;;;;;5.35;1.23;;;6.10;95.30;;;10.15;76.92;102164.28;5014603;28;98113;-73
2020/12/18 00:57:06;;;;;;;0.40;0.40;;;6.10;95.30;;;10.09;77.29;102170.69;4999196;28;96683;-73
2020/12/18 00:59:34;;;;;;;2.30;2.10;;;6.10;95.30;;;10.04;77.64;102170.69;4999540;28;96870;-73
2020/12/18 01:02:06;;;;;;;3.95;2.90;;;6.10;95.20;;;10.08;77.38;102172.59;4992823;28;96961;-73
2020/12/18 01:04:35;;;;;;;3.83;1.08;;;6.10;95.20;;;10.08;77.16;102161.06;5014325;28;96846;-73
2020/12/18 01:07:05;;;;;;;0.60;0.60;;;6.00;95.20;;;10.04;77.13;102168.00;4995618;28;97511;-74
2020/12/18 01:09:35;;;;;;;1.05;0.93;;;6.00;95.20;;;10.16;77.05;102169.38;4991971;28;96767;-74
2020/12/18 01:12:12;;;;;;;0.50;0.50;;;6.00;95.20;;;10.17;76.69;102175.53;4995966;28;96934;-73
2020/12/18 01:14:40;;;;;;;1.23;1.00;;;6.00;95.20;;;10.08;77.09;102171.75;5003262;28;98918;-73
2020/12/18 01:17:08;;;;;;;2.28;1.20;;;6.00;95.20;;;10.01;77.27;102182.72;5003308;28;97839;-73
2020/12/18 01:19:37;;;;;;;1.45;1.15;;;6.00;95.20;;;9.95;77.47;102185.63;5011212;28;97378;-73
2020/12/18 01:22:05;;;;;;;3.30;1.08;;;6.00;95.20;;;9.92;77.80;102183.47;4996600;28;96642;-73
2020/12/18 01:24:45;;;;;;;29.15;2.47;;;6.00;95.20;;;9.80;78.32;102196.25;4994340;28;96824;-73
2020/12/18 01:27:13;;;;;;;1.45;1.35;;;6.00;95.20;;;9.72;78.19;102191.41;5005873;28;97045;-73
2020/12/18 01:29:40;;;;;;;0.60;0.60;;;6.00;95.20;;;9.69;78.59;102197.28;4983063;28;96839;-73
2020/12/18 01:32:13;;;;;;;29.15;2.03;;;5.90;95.20;;;9.77;78.09;102194.09;5001998;28;96851;-73
2020/12/18 01:34:44;;;;;;;1.95;0.82;;;5.90;95.20;;;9.71;78.13;102193.25;5003652;28;97412;-74
2020/12/18 01:37:15;;;;;;;3.17;1.23;;;5.90;95.20;;;9.69;77.99;102199.94;5003363;28;97798;-74
2020/12/18 01:39:53;;;;;;;2.08;1.27;;;5.90;95.20;;;9.71;78.00;102197.81;4987538;28;96671;-73
2020/12/18 01:42:30;;;;;;;20.95;1.85;;;5.90;95.20;;;9.67;78.31;102194.06;4990252;28;96739;-74
2020/12/18 01:44:58;;;;;;;3.83;0.98;;;5.90;95.20;;;9.65;78.43;102202.31;4996035;28;96846;-73
2020/12/18 01:47:42;;;;;;;3.20;0.90;;;5.90;95.30;;;9.65;78.32;102201.53;4983975;28;96747;-73
2020/12/18 01:50:10;;;;;;;1.80;1.60;;;5.90;95.30;;;9.60;78.50;102201.50;4989374;28;96864;-73
2020/12/18 01:52:47;;;;;;;0.85;0.85;;;5.90;95.20;;;9.54;78.60;102203.34;4981383;28;96944;-73
2020/12/18 01:55:24;;;;;;;1.60;1.50;;;5.90;95.20;;;9.51;78.60;102203.06;4998519;28;97926;-74
2020/12/18 01:57:54;;;;;;;5.28;2.92;;;5.90;95.20;;;9.49;78.54;102200.66;4997241;28;97788;-74
2020/12/18 02:00:32;;;;;;;2.90;2.03;;;5.80;95.20;;;9.44;78.71;102199.81;4994088;28;96788;-74
2020/12/18 02:03:04;;;;;;;1.08;1.08;;;5.80;95.20;;;9.38;79.01;102203.50;4991154;28;96950;-74
2020/12/18 02:05:49;;;;;;;0.88;0.88;;;5.80;95.20;;;9.39;78.71;102199.78;4979033;28;96696;-73
2020/12/18 02:08:34;;;;;;;4.60;1.88;;;5.70;95.10;;;9.38;78.42;102188.25;5006943;28;96804;-74
2020/12/18 02:11:22;;;;;;;0.95;0.95;;;5.70;95.10;;;9.33;78.84;102190.13;4998597;28;96829;-74
2020/12/18 02:13:53;;;;;;;4.17;1.87;;;5.70;95.20;;;9.32;78.95;102189.28;5000837;28;96931;-73
2020/12/18 02:16:24;;;;;;;3.53;2.55;;;5.70;95.20;;;9.35;78.39;102187.97;5007043;28;96903;-73
2020/12/18 02:19:02;;;;;;;16.95;2.25;;;5.70;95.20;;;9.35;78.75;102191.44;4997216;28;96813;-73
2020/12/18 02:21:36;;;;;;;2.88;1.63;;;5.70;95.20;;;9.36;78.54;102192.28;5009152;28;96836;-74
2020/12/18 02:24:09;;;;;;;0.95;0.95;;;5.70;95.20;;;9.47;78.09;102191.25;5001499;28;96848;-74
2020/12/18 02:26:38;;;;;;;8.23;2.40;;;5.60;95.20;;;9.50;78.25;102186.22;5011069;28;96911;-74
2020/12/18 02:29:10;;;;;;;1.90;1.30;;;5.60;95.20;;;9.50;77.75;102183.53;5001403;28;97641;-74
2020/12/18 02:31:50;;;;;;;1.85;1.58;;;5.60;95.20;;;9.47;77.77;102188.59;4994479;28;96807;-74
2020/12/18 02:34:35;;;;;;;1.17;1.08;;;5.60;95.20;;;9.44;78.06;102189.09;5006374;28;96988;-74
2020/12/18 02:37:09;;;;;;;1.10;1.02;;;5.60;95.20;;;9.42;77.82;102184.00;4984235;28;96645;-74
2020/12/18 02:39:38;;;;;;;3.63;1.98;;;5.60;95.20;;;9.37;77.90;102175.16;4978068;28;97613;-74
2020/12/18 02:42:14;;;;;;;1.33;1.23;;;5.60;95.20;;;9.39;77.83;102184.53;5002349;28;96868;-74
2020/12/18 02:44:47;;;;;;;1.17;1.08;;;5.50;95.20;;;9.35;77.79;102182.63;5005759;28;96750;-73
2020/12/18 02:47:35;;;;;;;0.75;0.75;;;5.50;95.20;;;9.29;77.76;102180.97;5001618;28;97804;-74
2020/12/18 02:50:08;;;;;;;2.83;1.88;;;5.50;95.20;;;9.32;77.79;102178.59;4997521;28;96767;-73
2020/12/18 02:52:46;;;;;;;1.50;1.40;;;5.50;95.20;;;9.29;77.70;102178.28;5007338;28;96837;-73
2020/12/18 02:55:32;;;;;;;4.20;1.73;;;5.50;95.20;;;9.28;77.61;102172.16;4994617;28;96763;-73
2020/12/18 02:58:20;;;;;;;1.15;1.05;;;5.40;95.10;;;9.25;77.86;102179.09;4983286;28;97904;-74
2020/12/18 03:00:53;;;;;;;;;;;5.40;95.10;;;9.22;77.79;102177.72;4997436;28;97516;-73
2020/12/18 03:03:23;;;;;;;2.42;1.10;;;5.40;95.10;;;9.20;78.03;102171.03;5006137;28;96755;-73
2020/12/18 03:05:55;;;;;;;1.85;1.15;;;5.40;95.20;;;9.20;77.96;102173.72;4996509;28;97544;-74
2020/12/18 03:08:30;;;;;;;1.00;1.00;;;5.40;95.20;;;9.27;77.60;102167.06;4997598;28;97977;-74
2020/12/18 03:11:06;;;;;;;1.38;1.08;;;5.40;95.20;;;9.22;77.75;102167.03;4995199;28;97651;-74
2020/12/18 03:13:35;;;;;;;5.63;1.63;;;5.30;95.20;;;9.20;77.57;102163.81;4998678;28;96645;-74
2020/12/18 03:16:05;;;;;;;1.08;1.00;;;5.30;95.20;;;9.15;77.82;102162.94;4995111;28;96842;-74
2020/12/18 03:18:51;;;;;;;1.17;0.45;;;5.30;95.20;;;9.20;77.54;102171.03;4997801;28;97279;-74
2020/12/18 03:21:20;;;;;;;2.40;2.13;;;5.30;95.20;;;9.15;77.93;102166.44;4995907;28;97164;-74
2020/12/18 03:23:50;;;;;;;1.70;1.48;;;5.30;95.20;;;9.16;77.68;102170.72;4996976;28;96634;-74
2020/12/18 03:26:34;;;;;;;1.27;1.17;;;5.30;95.20;;;9.13;77.91;102176.59;5006121;28;96737;-74
2020/12/18 03:29:11;;;;;;;2.92;1.20;;;5.30;95.20;;;9.13;77.57;102173.91;4997783;28;98048;-74
2020/12/18 03:31:39;;;;;;;5.32;1.60;;;5.30;95.50;;;9.07;78.10;102172.28;5004482;28;97934;-74
2020/12/18 03:34:07;;;;;;;0.60;0.60;;;5.30;95.30;;;9.13;78.20;102167.75;5005373;28;96805;-74
2020/12/18 03:36:42;;;;;;;2.60;2.22;;;5.20;95.20;;;9.11;77.64;102170.69;5015248;28;97001;-74
2020/12/18 03:39:13;;;;;;;1.65;1.27;;;5.20;95.20;;;9.10;78.09;102169.09;4997902;28;98159;-74
2020/12/18 03:41:56;;;;;;;0.88;0.80;;;5.30;95.30;;;9.09;78.28;102167.47;4994552;28;96745;-74
2020/12/18 03:44:25;;;;;;;0.60;0.60;;;5.20;95.30;;;9.14;77.74;102178.22;5004078;28;96833;-74
2020/12/18 03:46:53;;;;;;;3.58;1.67;;;5.20;95.30;;;9.15;77.89;102174.47;5009331;28;96795;-74
2020/12/18 03:49:46;;;;;;;2.57;1.77;;;5.20;95.30;;;9.12;77.98;102176.84;5001068;28;96972;-74
2020/12/18 03:52:14;;;;;;;1.02;0.93;;;5.30;95.30;;;9.08;78.06;102173.06;4999068;28;97846;-74
2020/12/18 03:54:47;;;;;;;3.15;1.42;;;5.30;95.30;;;9.10;78.14;102173.63;4994432;28;96746;-74
2020/12/18 03:57:35;;;;;;;1.67;1.30;;;5.30;95.30;;;9.13;77.99;102167.75;4998911;28;96734;-74
2020/12/18 04:00:18;;;;;;;2.75;2.15;;;5.30;95.40;;;9.21;77.55;102159.28;4997441;28;96780;-74
2020/12/18 04:02:53;;;;;;;12.65;2.00;;;5.20;95.30;;;9.11;78.13;102167.22;4999810;28;98873;-74
2020/12/18 04:05:24;;;;;;;1.52;1.15;;;5.30;95.30;;;9.11;77.71;102167.22;4996333;28;96823;-74
2020/12/18 04:07:55;;;;;;;1.57;1.43;;;5.20;95.30;;;9.10;77.91;102163.75;5005709;28;96844;-74
2020/12/18 04:10:45;;;;;;;1.35;1.20;;;5.20;95.30;;;9.20;78.05;102163.81;4993771;28;97728;-74
2020/12/18 04:13:39;;;;;;;4.47;1.70;;;5.20;95.30;;;9.18;77.92;102162.47;4994636;28;96899;-74
2020/12/18 04:16:08;;;;;;;2.28;1.83;;;5.20;95.40;;;9.19;77.96;102159.53;4999914;28;97303;-74
2020/12/18 04:18:36;;;;;;;2.22;1.85;;;5.30;95.40;;;9.16;78.02;102157.38;4998991;28;96804;-74
2020/12/18 04:21:08;;;;;;;0.57;0.57;;;5.20;95.30;;;9.20;78.16;102158.44;4991520;28;96758;-74
2020/12/18 04:23:42;;;;;;;1.88;1.60;;;5.20;95.40;;;9.21;77.63;102149.38;5000830;28;96834;-74
2020/12/18 04:26:18;;;;;;;0.50;0.50;;;5.30;95.40;;;9.19;77.64;102148.81;4998186;28;96749;-74
2020/12/18 04:28:47;;;;;;;2.65;2.30;;;5.20;95.30;;;9.19;77.72;102140.00;4987581;28;96692;-74
2020/12/18 04:31:16;;;;;;;1.67;0.90;;;5.30;95.30;;;9.19;77.70;102135.44;5003616;28;97759;-74
2020/12/18 04:33:44;;;;;;;1.67;1.45;;;5.20;95.30;;;9.14;78.09;102137.28;4995895;28;97714;-73
2020/12/18 04:36:16;;;;;;;1.80;1.70;;;5.30;95.30;;;9.06;78.27;102140.44;4992423;28;96790;-73
2020/12/18 04:38:47;;;;;;;1.65;1.20;;;5.20;95.30;;;9.11;77.81;102149.31;4998543;28;96819;-73
2020/12/18 04:41:30;;;;;;;0.80;0.80;;;5.30;95.30;;;9.01;78.33;102146.59;5014488;28;97879;-73
2020/12/18 04:44:05;;;;;;;1.33;1.27;;;5.20;95.30;;;9.03;78.52;102144.44;4997720;28;96777;-73
2020/12/18 04:46:50;;;;;;;18.33;2.10;;;5.20;95.30;;;9.05;78.28;102146.84;4994643;28;96692;-73
2020/12/18 04:49:21;;;;;;;1.13;1.10;;;5.20;95.30;;;9.04;78.31;102146.06;5001871;28;96827;-73
2020/12/18 04:52:08;;;;;;;13.35;2.63;;;5.20;95.30;;;8.98;78.15;102144.38;5003636;28;98126;-73
2020/12/18 04:54:46;;;;;;;11.68;2.92;;;5.20;95.30;;;8.97;78.49;102145.47;5003468;28;97687;-73
2020/12/18 04:57:36;;;;;;;9.68;1.00;;;5.20;95.30;;;9.00;78.29;102139.59;4994072;28;96645;-73
2020/12/18 05:00:14;;;;;;;2.87;1.77;;;5.20;95.30;;;8.99;78.46;102137.97;5010302;28;96934;-73
2020/12/18 05:03:05;;;;;;;0.85;0.85;;;5.20;95.30;;;9.00;78.24;102136.91;4999200;28;98702;-73
2020/12/18 05:05:34;;;;;;;2.00;1.48;;;5.20;95.30;;;9.01;78.30;102135.06;4997358;28;96766;-73
2020/12/18 05:08:07;;;;;;;0.95;0.80;;;5.20;95.30;;;8.95;78.38;102128.88;5006730;28;96735;-73
2020/12/18 05:10:36;;;;;;;0.30;0.30;;;5.20;95.30;;;8.97;78.60;102126.75;4998414;28;96696;-73
2020/12/18 05:13:13;;;;;;;1.50;1.40;;;5.20;95.30;;;9.00;78.48;102117.41;4985586;28;96794;-73
2020/12/18 05:15:59;;;;;;;2.25;0.82;;;5.30;95.40;;;9.07;78.59;102124.16;5000756;28;97634;-73
2020/12/18 05:19:05;;;;;;;1.40;1.30;;;5.30;95.40;;;9.09;77.80;102121.22;5010473;28;96682;-73
2020/12/18 05:22:06;;;;;;;0.43;0.20;;;5.20;95.40;;;9.13;77.92;102125.78;4991222;28;97071;-73
2020/12/18 05:24:53;;;;;;;1.58;1.33;;;5.30;95.40;;;9.19;78.01;102123.97;4997281;28;97890;-73
2020/12/18 05:27:23;;;;;;;6.07;1.13;;;5.30;95.40;;;9.21;78.07;102111.16;5000659;28;97749;-73
2020/12/18 05:29:53;;;;;;;2.00;1.23;;;5.30;95.40;;;9.28;78.09;102124.00;5002848;28;96715;-73
2020/12/18 05:32:52;;;;;;;0.55;0.55;;;5.30;95.50;;;9.28;78.03;102118.66;5010803;28;96678;-73
2020/12/18 05:35:25;;;;;;;1.45;0.88;;;5.40;95.50;;;9.34;77.72;102116.84;5003835;28;97814;-73
2020/12/18 05:38:08;;;;;;;5.45;2.13;;;5.40;95.40;;;9.27;78.06;102115.44;5015833;28;97652;-73
2020/12/18 05:40:59;;;;;;;13.38;1.20;;;5.40;95.40;;;9.31;78.04;102117.34;4996177;28;96855;-73
2020/12/18 05:43:53;;;;;;;3.03;1.35;;;5.40;95.40;;;9.35;78.03;102121.13;5002336;28;96788;-73
2020/12/18 05:46:41;;;;;;;0.85;0.80;;;5.40;95.40;;;9.29;77.95;102124.81;4997905;28;97789;-73
2020/12/18 05:49:33;;;;;;;0.73;0.73;;;5.40;95.40;;;9.32;78.04;102124.31;4989410;28;97340;-73
2020/12/18 05:52:20;;;;;;;1.40;1.30;;;5.40;95.40;;;9.29;78.14;102114.09;5006058;28;96641;-73
2020/12/18 05:54:57;;;;;;;1.05;0.82;;;5.40;95.40;;;9.26;78.25;102121.88;5007059;28;97250;-73
2020/12/18 05:57:35;;;;;;;0.80;0.80;;;5.40;95.40;;;9.37;77.98;102117.09;4995996;28;97107;-73
2020/12/18 06:00:12;;;;;;;0.90;0.90;;;5.40;95.40;;;9.30;78.00;102115.72;5007028;28;97871;-73
2020/12/18 06:03:03;;;;;;;0.65;0.60;;;5.40;95.40;;;9.29;78.12;102116.78;4994651;28;96811;-73
2020/12/18 06:05:39;;;;;;;0.43;0.43;;;5.40;95.40;;;9.33;78.33;102116.00;5002864;28;97166;-73
2020/12/18 06:08:19;;;;;;;0.52;0.52;;;5.40;95.40;;;9.38;78.20;102116.03;5006529;28;96837;-73
2020/12/18 06:10:55;;;;;;;1.23;1.05;;;5.50;95.50;;;9.40;78.21;102123.81;5003698;28;98023;-73
2020/12/18 06:13:43;;;;;;;6.72;0.63;;;5.50;95.50;;;9.43;78.00;102121.41;4988654;28;96754;-73
2020/12/18 06:16:19;;;;;;;;;;;5.50;95.50;;;9.46;77.72;102117.41;5002207;28;96765;-73
2020/12/18 06:19:08;;;;;;;0.50;0.50;;;5.50;95.70;;;9.42;77.84;102116.34;4984213;28;97846;-74
2020/12/18 06:21:49;;;;;;;19.85;1.95;;;5.50;95.40;;;9.44;77.58;102117.66;5000317;28;97252;-74
2020/12/18 06:25:09;;;;;;;0.60;0.60;;;5.50;95.40;;;9.46;77.64;102112.06;4986550;28;96959;-74
2020/12/18 06:27:58;;;;;;;3.28;0.85;;;5.50;95.30;;;9.48;77.85;102112.63;5014642;28;97098;-74
2020/12/18 06:30:35;;;;;;;0.38;0.38;;;5.50;95.40;;;9.53;77.72;102120.66;4994358;27;96977;-74
2020/12/18 06:33:50;;;;;;;5.50;0.38;;;5.50;95.40;;;9.54;77.63;102120.41;4980862;28;97708;-74
2020/12/18 06:36:59;;;;;;;1.30;0.73;;;5.50;95.40;;;9.53;77.61;102110.78;4998500;28;96717;-74
2020/12/18 06:40:00;;;;;;;1.40;1.30;;;5.60;95.40;;;9.55;77.14;102113.16;5014321;28;96686;-74
2020/12/18 06:42:59;;;;;;;1.40;0.90;;;5.60;95.40;;;9.60;77.77;102105.16;4999490;28;97814;-73
2020/12/18 06:46:07;;;;;;;2.80;0.55;;;5.60;95.40;;;9.64;77.68;102108.94;4986391;28;96672;-73
2020/12/18 06:48:54;;;;;;;0.77;0.77;;;5.60;95.40;;;9.55;77.73;102102.47;4998825;28;96958;-73
2020/12/18 06:51:47;;;;;;;0.95;0.90;;;5.60;95.40;;;9.55;77.98;102099.78;4996040;28;96973;-73
2020/12/18 06:54:30;;;;;;;1.85;0.98;;;5.60;95.40;;;9.59;78.17;102104.38;5001126;28;97780;-73
2020/12/18 06:57:22;;;;;;;6.75;2.03;;;5.60;95.50;;;9.69;77.93;102092.91;4990407;28;97721;-73
2020/12/18 06:59:51;;;;;;;0.30;0.30;;;5.70;95.60;;;9.73;78.06;102088.63;5006895;28;97613;-73
2020/12/18 07:02:37;;;;;;;0.75;0.75;;;5.70;95.60;;;9.86;77.71;102098.84;5000259;28;96632;-73
2020/12/18 07:05:05;;;;;;;0.70;0.65;;;5.80;95.60;;;9.89;77.84;102092.94;4994805;27;97916;-74
2020/12/18 07:07:41;;;;;;;0.52;0.52;;;5.80;95.60;;;9.91;77.87;102085.50;4996450;28;96858;-74
2020/12/18 07:10:09;;;;;;;4.00;1.20;;;5.80;95.60;;;10.01;77.94;102078.28;4998063;28;96915;-74
2020/12/18 07:12:37;;;;;;;3.28;0.98;;;5.90;95.60;;;10.02;77.70;102076.44;4997882;28;96735;-74
2020/12/18 07:15:07;;;;;;;2.35;1.00;;;5.90;95.60;;;10.04;77.67;102076.97;4985322;28;97195;-73
2020/12/18 07:17:36;;;;;;;0.45;0.40;;;5.90;95.60;;;10.07;78.13;102084.47;5006125;28;97803;-74
2020/12/18 07:20:05;;;;;;;2.75;1.90;;;6.00;95.60;;;10.12;77.90;102065.72;4988176;28;96766;-74
2020/12/18 07:22:32;;;;;;;0.65;0.65;;;6.10;95.60;;;10.15;77.70;102073.22;4993778;28;96701;-73
2020/12/18 07:25:12;;;;;;;1.35;1.25;;;6.10;95.60;;;10.21;77.46;102078.31;5000751;28;96873;-73
2020/12/18 07:27:40;;;;;;;0.20;0.20;;;6.10;95.50;;;10.16;77.79;102070.28;4997219;28;96851;-73
2020/12/18 07:30:11;;;;;;;7.85;0.90;;;6.20;95.50;;;10.22;78.00;102073.78;4993824;28;96842;-73
2020/12/18 07:32:39;;;;;;;3.97;0.95;;;6.20;95.50;;;10.27;77.97;102061.19;4995238;28;96726;-74
2020/12/18 07:35:08;;;;;;;4.38;2.05;;;6.20;95.50;;;10.31;78.01;102058.78;4988121;28;97195;-73
2020/12/18 07:37:37;;;;;;;0.47;0.40;;;6.20;95.50;;;10.36;77.94;102048.88;4998049;28;97911;-73
2020/12/18 07:40:05;;;;;;;1.38;1.05;;;6.30;95.50;;;10.34;77.55;102052.88;5002477;28;97638;-73
2020/12/18 07:42:40;;;;;;;1.65;1.52;;;6.30;95.50;;;10.41;77.72;102048.06;5005556;28;96986;-73
2020/12/18 07:45:10;;;;;;;0.85;0.45;;;6.30;95.50;;;10.50;77.98;102044.59;5000025;28;96783;-74
2020/12/18 07:47:39;;;;;;;0.50;0.50;;;6.40;95.60;;;10.55;78.03;102041.88;4997017;28;97652;-73
2020/12/18 07:50:09;;;;;;;0.20;0.20;;;6.50;95.60;;;10.57;77.67;102041.63;4995590;28;96860;-74
2020/12/18 07:52:37;;;;;;;3.67;1.33;;;6.50;95.60;;;10.68;77.67;102046.72;4997734;28;96742;-75
2020/12/18 07:55:05;;;;;;;1.90;1.08;;;6.60;95.50;;;10.70;77.94;102051.78;4997386;28;96696;-74
2020/12/18 07:57:35;;;;;;;0.75;0.75;;;6.60;95.50;;;10.75;77.44;102049.91;4993984;28;97951;-74
2020/12/18 08:00:10;;;;;;;5.28;1.15;;;6.60;95.40;;;10.82;77.45;102053.13;4988230;28;97322;-74
2020/12/18 08:02:41;;;;;;;0.85;0.85;;;6.70;95.40;;;10.80;77.60;102047.22;4995495;28;96859;-73
2020/12/18 08:05:08;;;;;;;1.15;0.88;;;6.70;95.40;;;10.83;77.46;102057.41;4998670;28;97190;-74
2020/12/18 08:07:37;;;;;;;0.20;0.20;;;6.70;95.40;;;10.92;77.62;102055.78;5013894;28;97688;-74
2020/12/18 08:10:06;;;;;;;0.30;0.28;;;6.80;95.40;;;10.95;77.56;102063.25;4995263;28;96614;-74
2020/12/18 08:12:36;;;;;;;0.68;0.68;;;6.80;95.40;;;11.02;77.80;102055.75;4996440;28;96789;-73
2020/12/18 08:15:14;;;;;;;7.68;1.00;;;6.80;95.30;;;11.00;77.32;102057.91;5000561;28;97000;-74
2020/12/18 08:17:44;;;;;;;1.20;0.85;;;6.90;95.40;;;11.04;77.34;102058.97;4989763;28;98163;-74
2020/12/18 08:20:15;;;;;;;6.50;1.05;;;6.90;95.30;;;11.06;77.85;102054.94;4991932;28;96662;-74
2020/12/18 08:22:45;;;;;;;1.25;1.00;;;6.90;95.30;;;11.10;77.35;102064.03;4994389;28;97562;-74
2020/12/18 08:25:19;;;;;;;12.40;1.85;;;7.00;95.30;;;11.18;77.61;102066.19;4981059;28;99900;-74
2020/12/18 08:27:53;;;;;;;3.35;1.30;;;7.00;95.30;;;11.28;77.22;102055.41;4989752;28;96840;-74
2020/12/18 08:30:31;;;;;;;0.70;0.70;;;7.10;95.30;;;11.34;77.34;102074.97;4991771;28;96723;-74
2020/12/18 08:33:04;;;;;;;1.35;1.08;;;7.10;95.30;;;11.39;77.08;102083.78;4990734;28;96727;-74
2020/12/18 08:35:32;;;;;;;2.63;1.20;;;7.20;95.30;;;11.50;76.83;102079.19;4981863;28;97042;-74
2020/12/18 08:38:09;;;;;;;0.45;0.45;;;7.10;95.20;;;11.51;76.88;102081.63;4998988;28;98098;-74
2020/12/18 08:40:43;;;;;;;4.93;1.08;;;7.20;95.20;;;11.63;76.33;102089.38;4989429;28;96936;-74
2020/12/18 08:43:11;;;;;;;3.55;1.45;;;7.30;95.20;;;11.63;77.09;102095.53;4995644;28;97448;-74
2020/12/18 08:45:44;;;;;;;2.25;1.77;;;7.30;95.20;;;11.76;77.01;102092.28;4998178;28;96744;-74
2020/12/18 08:48:19;;;;;;;1.48;0.68;;;7.40;95.20;;;11.83;76.22;102100.00;4997765;28;96557;-74
2020/12/18 08:50:48;;;;;;;18.05;1.27;;;7.40;95.10;;;11.92;76.39;102109.91;4999122;28;96691;-73
2020/12/18 08:53:17;;;;;;;2.50;1.23;;;7.40;95.10;;;11.81;77.03;102112.91;4992590;28;96719;-73
2020/12/18 08:56:06;;;;;;;0.57;0.57;;;7.50;95.10;;;11.92;76.31;102115.28;4992904;28;97783;-73
2020/12/18 08:58:34;;;;;;;1.65;1.02;;;7.60;95.10;;;12.00;76.56;102113.91;5005872;28;96750;-73
2020/12/18 09:01:25;;;;;;;1.33;1.23;;;7.60;95.00;;;12.05;76.48;102112.00;5011590;28;96819;-74
2020/12/18 09:03:53;;;;;;;0.77;0.68;;;7.70;95.00;;;12.13;76.54;102122.16;4997693;28;96879;-73
2020/12/18 09:06:23;;;;;;;0.90;0.70;;;7.70;95.00;;;12.13;76.14;102116.78;4992540;28;97952;-73
2020/12/18 09:09:06;;;;;;;0.60;0.60;;;7.80;95.00;;;12.14;76.15;102118.38;4996324;28;96758;-74
2020/12/18 09:11:34;;;;;;;1.95;1.00;;;7.80;95.00;;;12.01;76.73;102120.88;4988410;28;96740;-73
2020/12/18 09:14:05;;;;;;;0.57;0.50;;;7.80;95.00;;;12.01;77.07;102119.00;4999166;28;96783;-73
2020/12/18 09:16:34;;;;;;;0.82;0.73;;;7.80;95.00;;;11.95;77.34;102125.47;4995492;28;96786;-73
2020/12/18 09:19:04;;;;;;;0.65;0.65;;;7.80;95.00;;;12.00;76.93;102128.13;4995118;28;97198;-73
2020/12/18 09:21:31;;;;;;;0.60;0.60;;;7.80;95.00;;;12.31;76.68;102131.44;4996743;28;96826;-74
2020/12/18 09:23:59;;;;;;;0.38;0.38;;;7.90;95.10;;;12.60;75.87;102130.41;4999806;28;96837;-74
2020/12/18 09:26:31;;;;;;;4.38;2.28;;;8.00;95.10;;;12.60;75.93;102125.03;4993651;28;98324;-73
2020/12/18 09:28:59;;;;;;;2.38;1.55;;;8.10;95.00;;;12.56;76.52;102122.13;4991508;28;99132;-73
2020/12/18 09:31:30;;;;;;;1.25;1.08;;;8.20;94.90;;;12.66;76.55;102115.84;4995980;28;96834;-73
2020/12/18 09:34:14;;;;;;;2.83;1.42;;;8.30;94.90;;;12.69;76.48;102120.66;5002933;28;96910;-73
2020/12/18 09:36:42;;;;;;;2.28;0.40;;;8.30;94.90;;;12.56;76.69;102130.19;4996367;28;96936;-72
2020/12/18 09:39:10;;;;;;;0.35;0.35;;;8.40;95.00;;;12.61;76.60;102130.13;4997791;28;97374;-73
2020/12/18 09:41:38;;;;;;;1.55;0.70;;;8.40;95.00;;;12.74;76.75;102124.09;4992015;28;96938;-74
2020/12/18 09:44:06;;;;;;;1.60;1.02;;;8.40;95.00;;;12.87;76.37;102136.09;4987999;28;97116;-73
2020/12/18 09:46:33;;;;;;;2.60;1.42;;;8.50;95.10;;;12.92;76.42;102138.78;4999364;28;98108;-72
2020/12/18 09:49:02;;;;;;;0.70;0.70;;;8.50;95.00;;;12.94;76.87;102126.66;4990252;28;97667;-72
2020/12/18 09:51:30;;;;;;;0.40;0.40;;;8.60;95.10;;;13.03;76.31;102133.00;4987752;28;97541;-72
2020/12/18 09:53:58;;;;;;;2.30;2.05;;;8.60;95.10;;;13.06;76.48;102126.28;4983767;28;96802;-73
2020/12/18 09:56:36;;;;;;;3.83;1.40;;;8.70;95.10;;;13.11;76.57;102128.91;4992094;28;97621;-72
2020/12/18 09:59:04;;;;;;;0.15;0.15;;;8.70;95.00;;;13.18;76.68;102132.06;4993053;28;97171;-72
2020/12/18 10:01:34;;;;;;;1.52;1.15;;;8.80;95.00;;;13.22;76.23;102135.81;4992042;28;96729;-73
2020/12/18 10:04:05;;;;;;;1.45;0.82;;;8.80;95.00;;;13.20;76.76;102136.09;4990615;28;97305;-73
2020/12/18 10:06:32;;;;;;;0.60;0.60;;;8.90;95.10;;;13.15;76.70;102130.75;4994724;28;97040;-73
2020/12/18 10:09:00;;;;;;;0.60;0.60;;;8.90;95.00;;;13.16;77.07;102142.31;4997446;28;98399;-73
2020/12/18 10:11:31;;;;;;;1.70;1.08;;;8.90;95.00;;;13.13;77.19;102143.69;4995864;28;96734;-73
2020/12/18 10:13:59;;;;;;;1.50;0.73;;;8.90;95.00;;;13.19;77.07;102120.22;4996846;28;97419;-73
2020/12/18 10:16:30;;;;;;;0.45;0.45;;;8.90;95.00;;;13.26;76.64;102124.16;4995248;28;98504;-73
2020/12/18 10:18:58;;;;;;;1.83;1.35;;;8.90;95.00;;;13.31;76.65;102121.41;4984915;28;97715;-73
2020/12/18 10:21:27;;;;;;;0.65;0.65;;;8.90;95.00;;;13.27;76.96;102122.28;4987915;28;97778;-73
2020/12/18 10:23:54;;;;;;;7.40;2.15;;;9.00;95.10;;;13.32;76.78;102114.16;5001127;28;96668;-73
2020/12/18 10:26:22;;;;;;;1.33;1.05;;;9.00;95.00;;;13.38;76.33;102108.44;4996775;28;98703;-73
2020/12/18 10:28:49;;;;;;;0.75;0.63;;;9.00;95.10;;;13.47;76.72;102117.47;4997371;28;96680;-72
2020/12/18 10:31:17;;;;;;;1.75;0.90;;;9.00;95.10;;;13.44;76.71;102112.69;4997460;28;96762;-73
2020/12/18 10:33:45;;;;;;;0.70;0.70;;;9.10;95.10;;;13.46;76.49;102112.38;4994598;28;96856;-73
2020/12/18 10:36:12;;;;;;;2.15;0.90;;;9.10;95.10;;;13.52;76.60;102112.03;4991437;28;97950;-74
2020/12/18 10:38:41;;;;;;;3.13;0.85;;;9.10;95.00;;;13.56;76.39;102107.66;4994671;28;97661;-73
2020/12/18 10:41:10;;;;;;;17.75;1.20;;;9.10;95.00;;;13.60;76.41;102113.28;4997288;28;96896;-74
2020/12/18 10:43:38;;;;;;;7.10;1.88;;;9.20;95.00;;;13.72;76.28;102108.28;4997651;28;96777;-74
2020/12/18 10:46:05;;;;;;;0.45;0.45;;;9.20;95.00;;;13.77;76.22;102111.72;4993786;28;96807;-73
2020/12/18 10:48:33;;;;;;;5.32;1.02;;;9.30;95.00;;;13.79;76.05;102098.75;4995445;28;96747;-74
2020/12/18 10:51:02;;;;;;;3.10;2.42;;;9.30;95.00;;;13.91;76.10;102096.44;4996382;28;96778;-74
2020/12/18 10:53:30;;;;;;;3.75;1.33;;;9.40;95.00;;;13.93;76.06;102093.47;4994928;28;97018;-74